Portage Lakes, Ohio
Current Conditions -  °F | °C
As of 4:54 PM on Saturday 27 Dec 2014 (Local Time) from KAKR Reporting Station
Overcast Overcast  
Wind Chill: 53°   Ceiling: 2800
Heat Index: 53°   Visibility: 10mi
Dew Point: 32°   Wind: 15mph
Humidity: 45%   Direction: 200°SSW
Pressure: 30.03"   Gusts: NA
Location:  41.01°N, 81.53°W
Report Text: KAKR 272154Z AUTO 20013KT 10SM OVC028 12/00 A3003 RMK AO2 SLP172 T01170000
Loading
Personal Weather Stations






























Interactive Weather Map New forecast layout! Learn more

10-Day Weather Forecast

Advertisements
Track Severe Weather on mobile